createdAt,value
2022-12-22T00:00:00.307Z,6.00
2022-12-22T00:02:46.643Z,6.00
2022-12-22T00:05:37.511Z,6.90
2022-12-22T00:08:23.073Z,5.90
2022-12-22T00:11:09.117Z,5.80
2022-12-22T00:13:55.130Z,5.90
2022-12-22T00:16:46.660Z,5.80
2022-12-22T00:19:32.705Z,5.80
2022-12-22T00:22:53.446Z,5.90
2022-12-22T00:25:39.186Z,5.90
2022-12-22T00:28:32.503Z,5.90
2022-12-22T00:31:18.388Z,5.70
2022-12-22T00:34:03.627Z,6.80
2022-12-22T00:36:49.020Z,5.70
2022-12-22T00:39:34.206Z,5.90
2022-12-22T00:42:19.372Z,6.00
2022-12-22T00:45:04.474Z,6.00
2022-12-22T00:47:49.930Z,6.00
2022-12-22T00:50:35.724Z,6.10
2022-12-22T00:53:21.912Z,6.00
2022-12-22T00:56:07.433Z,6.00
2022-12-22T00:58:53.707Z,6.00
2022-12-22T01:01:39.190Z,6.00
2022-12-22T01:04:24.724Z,5.90
2022-12-22T01:07:09.974Z,6.00
2022-12-22T01:09:55.090Z,6.00
2022-12-22T01:12:43.279Z,6.00
2022-12-22T01:15:36.728Z,6.00
2022-12-22T01:18:22.447Z,6.10
2022-12-22T01:21:08.479Z,6.10
2022-12-22T01:23:54.158Z,6.00
2022-12-22T01:26:39.697Z,6.00
2022-12-22T01:29:24.867Z,6.00
2022-12-22T01:32:10.458Z,6.00
2022-12-22T01:34:56.063Z,6.00
2022-12-22T01:37:41.135Z,6.00
2022-12-22T01:40:34.876Z,6.00
2022-12-22T01:43:20.538Z,6.00
2022-12-22T01:46:05.879Z,7.20
2022-12-22T01:48:51.152Z,5.90
2022-12-22T01:51:46.504Z,6.70
2022-12-22T01:54:33.632Z,6.00
2022-12-22T01:57:19.138Z,6.00
2022-12-22T02:00:04.607Z,6.00
2022-12-22T02:02:51.323Z,5.90
2022-12-22T02:05:38.117Z,6.00
2022-12-22T02:08:29.789Z,6.00
2022-12-22T02:11:50.491Z,6.10
2022-12-22T02:14:57.663Z,6.10
2022-12-22T02:17:56.020Z,6.10
2022-12-22T02:24:06.360Z,6.10
2022-12-22T02:27:00.072Z,6.20
2022-12-22T02:29:49.887Z,6.10
2022-12-22T02:32:35.071Z,6.10
2022-12-22T02:35:20.370Z,6.10
2022-12-22T02:38:18.107Z,6.10
2022-12-22T02:41:16.463Z,6.00
2022-12-22T02:44:18.572Z,6.00
2022-12-22T02:47:27.696Z,6.00
2022-12-22T02:50:17.556Z,6.00
2022-12-22T02:53:04.327Z,6.30
2022-12-22T02:55:50.991Z,6.00
2022-12-22T02:58:37.732Z,6.10
2022-12-22T03:01:24.325Z,5.80
2022-12-22T03:04:09.498Z,6.10
2022-12-22T03:06:54.903Z,6.10
2022-12-22T03:09:42.189Z,6.00
2022-12-22T03:12:27.652Z,6.10
2022-12-22T03:15:12.867Z,5.90
2022-12-22T03:17:58.409Z,6.00
2022-12-22T03:20:43.804Z,6.80
2022-12-22T03:23:29.116Z,6.00
2022-12-22T03:25:56.057Z,5.90
2022-12-22T03:28:26.549Z,5.90
2022-12-22T03:30:59.887Z,5.90
2022-12-22T03:33:27.829Z,5.90
2022-12-22T03:35:54.671Z,5.90
2022-12-22T03:38:21.475Z,6.00
2022-12-22T03:40:48.251Z,5.80
2022-12-22T03:47:01.942Z,6.10
2022-12-22T03:49:28.685Z,6.10
2022-12-22T03:51:55.421Z,6.10
2022-12-22T03:54:24.457Z,6.00
2022-12-22T03:56:52.086Z,6.10
2022-12-22T03:59:19.573Z,5.90
2022-12-22T04:01:48.740Z,6.00
2022-12-22T04:04:18.384Z,6.00
2022-12-22T04:06:45.795Z,6.10
2022-12-22T04:09:12.483Z,6.10
2022-12-22T04:11:58.251Z,6.10
2022-12-22T04:14:33.162Z,6.10
2022-12-22T04:17:01.878Z,6.20
2022-12-22T04:19:28.586Z,6.20
2022-12-22T04:21:55.275Z,6.00
2022-12-22T04:24:22.402Z,6.00
2022-12-22T04:26:49.819Z,6.00
2022-12-22T04:29:16.832Z,6.10
2022-12-22T04:31:43.775Z,6.10
2022-12-22T04:34:10.576Z,6.10
2022-12-22T04:36:37.277Z,6.50
2022-12-22T04:39:04.081Z,6.10
2022-12-22T04:41:30.749Z,6.50
2022-12-22T04:43:57.415Z,6.30
2022-12-22T04:46:24.173Z,6.30
2022-12-22T04:48:56.020Z,6.20
2022-12-22T04:51:26.148Z,6.30
2022-12-22T04:53:52.816Z,6.40
2022-12-22T04:56:19.523Z,6.20
2022-12-22T04:58:46.185Z,6.20
2022-12-22T05:01:16.360Z,6.20
2022-12-22T05:03:43.337Z,6.30
2022-12-22T05:06:10.351Z,6.10
2022-12-22T05:08:37.460Z,6.10
2022-12-22T05:11:05.184Z,6.10
2022-12-22T05:13:32.614Z,6.20
2022-12-22T05:16:06.195Z,6.10
2022-12-22T05:18:34.397Z,6.30
2022-12-22T05:21:07.176Z,6.20
2022-12-22T05:23:33.818Z,6.30
2022-12-22T05:26:00.624Z,6.30
2022-12-22T05:28:27.319Z,6.30
2022-12-22T05:30:54.295Z,6.30
2022-12-22T05:33:21.500Z,6.30
2022-12-22T05:35:48.167Z,6.30
2022-12-22T05:38:14.797Z,6.30
2022-12-22T05:40:41.472Z,6.30
2022-12-22T05:43:08.099Z,6.30
2022-12-22T05:45:34.739Z,6.20
2022-12-22T05:48:01.440Z,6.30
2022-12-22T05:50:28.137Z,6.30
2022-12-22T05:52:55.058Z,6.30
2022-12-22T05:55:21.733Z,6.30
2022-12-22T05:57:48.403Z,6.20
2022-12-22T06:00:16.649Z,6.20
2022-12-22T06:02:44.375Z,6.20
2022-12-22T06:05:12.841Z,6.20
2022-12-22T06:07:39.566Z,6.20
2022-12-22T06:10:11.937Z,6.30
2022-12-22T06:12:41.056Z,6.40
2022-12-22T06:15:10.521Z,6.40
2022-12-22T06:17:43.911Z,6.40
2022-12-22T06:20:12.764Z,6.50
2022-12-22T06:22:39.446Z,6.60
2022-12-22T06:25:06.414Z,6.60
2022-12-22T06:27:33.047Z,6.60
2022-12-22T06:29:59.686Z,6.60
2022-12-22T06:32:26.333Z,6.80
2022-12-22T06:34:52.990Z,6.70
2022-12-22T06:37:19.677Z,6.70
2022-12-22T06:39:46.313Z,6.80
2022-12-22T06:42:31.820Z,6.80
2022-12-22T06:44:58.621Z,6.70
2022-12-22T06:47:25.283Z,7.00
2022-12-22T06:49:52.256Z,6.80
2022-12-22T06:52:18.943Z,6.90
2022-12-22T06:54:45.671Z,7.00
2022-12-22T06:57:12.474Z,7.00
2022-12-22T06:59:39.147Z,6.90
2022-12-22T07:02:05.972Z,7.00
2022-12-22T07:04:32.949Z,7.30
2022-12-22T07:06:59.611Z,7.30
2022-12-22T07:09:26.299Z,7.30
2022-12-22T07:11:52.994Z,7.40
2022-12-22T07:14:19.734Z,7.40
2022-12-22T07:16:47.467Z,7.00
2022-12-22T07:19:14.442Z,6.80
2022-12-22T07:21:41.171Z,7.00
2022-12-22T07:24:08.193Z,7.30
2022-12-22T07:26:35.023Z,7.60
2022-12-22T07:29:01.716Z,7.50
2022-12-22T07:31:28.484Z,7.60
2022-12-22T07:33:55.202Z,7.60
2022-12-22T07:36:21.983Z,7.60
2022-12-22T07:38:50.411Z,7.40
2022-12-22T07:41:37.757Z,7.60
2022-12-22T07:44:04.934Z,7.60
2022-12-22T07:46:36.421Z,7.70
2022-12-22T07:49:22.900Z,7.50
2022-12-22T07:51:49.921Z,7.80
2022-12-22T07:54:17.313Z,7.70
2022-12-22T07:56:45.335Z,7.60
2022-12-22T07:59:12.758Z,7.50
2022-12-22T08:01:41.471Z,7.60
2022-12-22T08:04:13.308Z,7.50
2022-12-22T08:06:40.539Z,7.70
2022-12-22T08:09:15.359Z,7.70
2022-12-22T08:11:42.066Z,7.70
2022-12-22T08:14:08.911Z,7.40
2022-12-22T08:16:35.747Z,7.80
2022-12-22T08:19:02.609Z,7.10
2022-12-22T08:21:29.313Z,7.60
2022-12-22T08:23:56.014Z,7.40
2022-12-22T08:26:31.763Z,7.70
2022-12-22T08:29:13.819Z,7.90
2022-12-22T08:31:41.469Z,8.00
2022-12-22T08:34:10.307Z,8.20
2022-12-22T08:36:40.235Z,8.20
2022-12-22T08:39:07.940Z,8.40
2022-12-22T08:44:29.098Z,8.80
2022-12-22T08:46:58.086Z,9.00
2022-12-22T08:49:26.396Z,9.00
2022-12-22T08:51:53.725Z,9.20
2022-12-22T08:54:21.039Z,8.70
2022-12-22T08:59:16.022Z,9.20
2022-12-22T09:01:46.873Z,9.30
2022-12-22T09:04:15.144Z,9.40
2022-12-22T09:06:41.909Z,8.50
2022-12-22T09:09:12.004Z,8.80
2022-12-22T09:11:40.286Z,9.20
2022-12-22T09:14:17.109Z,9.20
2022-12-22T09:16:50.763Z,9.10
2022-12-22T09:19:20.414Z,9.40
2022-12-22T09:21:51.819Z,9.10
2022-12-22T09:24:19.271Z,8.70
2022-12-22T09:26:46.700Z,9.30
2022-12-22T09:29:15.457Z,9.20
2022-12-22T09:31:43.213Z,9.80
2022-12-22T09:34:15.353Z,9.40
2022-12-22T09:36:44.937Z,9.40
2022-12-22T09:39:11.735Z,9.50
2022-12-22T09:41:51.174Z,9.50
2022-12-22T09:46:55.119Z,9.50
2022-12-22T09:49:22.946Z,9.50
2022-12-22T09:51:57.092Z,9.60
2022-12-22T09:54:25.354Z,9.70
2022-12-22T09:56:52.053Z,9.30
2022-12-22T09:59:20.906Z,9.70
2022-12-22T10:01:59.856Z,9.40
2022-12-22T10:07:18.933Z,9.90
2022-12-22T10:09:50.280Z,9.80
2022-12-22T10:12:21.165Z,9.80
2022-12-22T10:14:50.529Z,9.90
2022-12-22T10:17:25.372Z,9.80
2022-12-22T10:19:54.617Z,10.00
2022-12-22T10:22:35.101Z,9.70
2022-12-22T10:25:05.991Z,10.00
2022-12-22T10:27:42.001Z,9.50
2022-12-22T10:30:23.324Z,9.80
2022-12-22T10:33:04.063Z,10.20
2022-12-22T10:35:47.223Z,10.20
2022-12-22T10:40:55.321Z,10.50
2022-12-22T10:43:31.764Z,10.50
2022-12-22T10:45:59.237Z,10.60
2022-12-22T10:48:32.840Z,10.70
2022-12-22T10:51:00.539Z,10.50
2022-12-22T10:53:49.045Z,10.50
2022-12-22T10:56:34.912Z,10.50
2022-12-22T10:59:01.569Z,10.50
2022-12-22T11:01:31.398Z,10.50
2022-12-22T11:04:22.155Z,10.50
2022-12-22T11:06:49.119Z,10.50
2022-12-22T11:09:33.116Z,10.50
2022-12-22T11:12:10.737Z,10.50
2022-12-22T11:14:49.587Z,10.50
2022-12-22T11:17:42.059Z,10.40
2022-12-22T11:20:32.931Z,10.30
2022-12-22T11:23:15.292Z,10.40
2022-12-22T11:26:03.956Z,10.40
2022-12-22T11:29:06.352Z,10.50
2022-12-22T11:32:08.588Z,10.30
2022-12-22T11:35:02.353Z,10.30
2022-12-22T11:37:50.353Z,10.20
2022-12-22T11:40:49.664Z,10.00
2022-12-22T11:43:44.416Z,9.90
2022-12-22T11:46:18.687Z,9.80
2022-12-22T11:49:10.012Z,9.70
2022-12-22T11:51:52.985Z,9.70
2022-12-22T11:54:47.073Z,9.60
2022-12-22T11:57:33.816Z,9.50
2022-12-22T12:00:08.243Z,9.50
2022-12-22T12:03:03.079Z,9.40
2022-12-22T12:06:08.365Z,9.50
2022-12-22T12:08:59.580Z,9.50
2022-12-22T12:11:53.709Z,9.50
2022-12-22T12:14:39.509Z,9.50
2022-12-22T12:17:24.555Z,9.40
2022-12-22T12:20:20.527Z,9.50
2022-12-22T12:23:21.653Z,9.50
2022-12-22T12:26:08.401Z,9.60
2022-12-22T12:28:59.881Z,9.60
2022-12-22T12:31:34.886Z,9.60
2022-12-22T12:34:03.321Z,9.60
2022-12-22T12:36:37.265Z,9.70
2022-12-22T12:39:14.057Z,9.50
2022-12-22T12:41:55.940Z,9.50
2022-12-22T12:44:31.519Z,9.50
2022-12-22T12:47:07.455Z,9.40
2022-12-22T12:49:51.501Z,9.40
2022-12-22T12:52:18.326Z,9.30
2022-12-22T12:54:47.235Z,9.30
2022-12-22T12:57:23.345Z,9.30
2022-12-22T12:59:52.644Z,9.30
2022-12-22T13:02:28.935Z,9.30
2022-12-22T13:05:08.021Z,9.40
2022-12-22T13:08:08.823Z,9.40
2022-12-22T13:10:42.214Z,9.40
2022-12-22T13:13:33.619Z,9.30
2022-12-22T13:16:00.504Z,9.40
2022-12-22T13:18:28.387Z,9.40
2022-12-22T13:21:50.331Z,9.30
2022-12-22T13:24:26.395Z,9.30
2022-12-22T13:26:55.296Z,9.30
2022-12-22T13:29:22.246Z,9.20
2022-12-22T13:31:53.992Z,9.30
2022-12-22T13:34:32.525Z,9.20
2022-12-22T13:37:04.306Z,9.20
2022-12-22T13:39:31.041Z,9.20
2022-12-22T13:41:58.215Z,9.20
2022-12-22T13:44:29.542Z,9.20
2022-12-22T13:47:11.882Z,9.10
2022-12-22T13:52:27.693Z,9.10
2022-12-22T13:54:54.995Z,9.10
2022-12-22T13:57:23.161Z,9.00
2022-12-22T13:59:51.619Z,9.00
2022-12-22T14:02:20.967Z,9.00
2022-12-22T14:05:11.637Z,8.90
2022-12-22T14:07:38.654Z,8.90
2022-12-22T14:10:05.953Z,8.90
2022-12-22T14:12:41.051Z,8.90
2022-12-22T14:15:15.648Z,9.20
2022-12-22T14:17:47.906Z,8.80
2022-12-22T14:20:23.951Z,8.70
2022-12-22T14:23:01.904Z,8.80
2022-12-22T14:25:35.672Z,8.80
2022-12-22T14:28:12.025Z,8.70
2022-12-22T14:30:43.564Z,9.30
2022-12-22T14:33:24.005Z,8.80
2022-12-22T14:35:50.922Z,8.80
2022-12-22T14:38:22.511Z,9.10
2022-12-22T14:40:54.662Z,8.60
2022-12-22T14:43:27.285Z,8.70
2022-12-22T14:46:04.431Z,8.70
2022-12-22T14:48:35.064Z,9.40
2022-12-22T14:51:02.834Z,9.10
2022-12-22T14:53:39.221Z,9.10
2022-12-22T14:56:12.148Z,8.70
2022-12-22T14:58:41.581Z,8.70
2022-12-22T15:01:28.266Z,8.50
2022-12-22T15:04:20.073Z,8.60
2022-12-22T15:06:48.306Z,8.60
2022-12-22T15:09:14.954Z,8.60
2022-12-22T15:12:01.887Z,8.60
2022-12-22T15:14:38.252Z,8.60
2022-12-22T15:17:07.529Z,8.50
2022-12-22T15:19:36.323Z,8.50
2022-12-22T15:22:07.523Z,8.50
2022-12-22T15:24:34.502Z,8.50
2022-12-22T15:27:01.282Z,9.00
2022-12-22T15:29:27.970Z,8.50
2022-12-22T15:31:54.928Z,8.50
2022-12-22T15:34:32.389Z,9.00
2022-12-22T15:36:59.173Z,8.50
2022-12-22T15:39:26.056Z,9.20
2022-12-22T15:41:52.884Z,8.50
2022-12-22T15:44:19.635Z,8.50
2022-12-22T15:46:54.418Z,8.40
2022-12-22T15:49:24.465Z,8.50
2022-12-22T15:52:00.668Z,8.50
2022-12-22T15:54:28.551Z,8.50
2022-12-22T15:56:55.804Z,8.30
2022-12-22T15:59:25.967Z,8.40
2022-12-22T16:02:00.538Z,8.40
2022-12-22T16:04:28.696Z,8.50
2022-12-22T16:06:55.896Z,8.40
2022-12-22T16:09:26.427Z,8.50
2022-12-22T16:11:53.765Z,8.40
2022-12-22T16:14:21.015Z,8.40
2022-12-22T16:16:48.491Z,8.30
2022-12-22T16:19:16.969Z,8.30
2022-12-22T16:21:46.051Z,8.40
2022-12-22T16:24:40.925Z,8.40
2022-12-22T16:27:12.688Z,8.30
2022-12-22T16:29:41.072Z,8.40
2022-12-22T16:32:26.014Z,8.40
2022-12-22T16:34:54.037Z,8.30
2022-12-22T16:37:20.765Z,8.30
2022-12-22T16:39:47.647Z,8.30
2022-12-22T16:45:03.050Z,8.30
2022-12-22T16:47:33.964Z,8.30
2022-12-22T16:50:01.020Z,8.50
2022-12-22T16:52:38.870Z,8.30
2022-12-22T16:55:20.279Z,8.20
2022-12-22T16:57:47.492Z,8.20
2022-12-22T17:00:18.593Z,8.10
2022-12-22T17:02:53.130Z,8.10
2022-12-22T17:05:31.052Z,8.10
2022-12-22T17:07:58.846Z,8.00
2022-12-22T17:10:25.607Z,7.90
2022-12-22T17:12:56.750Z,7.90
2022-12-22T17:15:24.801Z,7.90
2022-12-22T17:17:52.642Z,7.90
2022-12-22T17:20:23.265Z,7.90
2022-12-22T17:22:55.060Z,7.90
2022-12-22T17:25:25.168Z,8.00
2022-12-22T17:27:52.129Z,8.00
2022-12-22T17:30:22.089Z,7.90
2022-12-22T17:32:49.579Z,7.90
2022-12-22T17:35:18.213Z,8.00
2022-12-22T17:37:46.911Z,7.90
2022-12-22T17:40:23.393Z,7.90
2022-12-22T17:42:50.348Z,7.90
2022-12-22T17:45:17.785Z,8.00
2022-12-22T17:47:45.306Z,7.90
2022-12-22T17:50:14.551Z,7.90
2022-12-22T17:52:42.538Z,7.90
2022-12-22T17:55:49.779Z,7.80
2022-12-22T17:58:06.932Z,7.80
2022-12-22T18:00:33.673Z,7.70
2022-12-22T18:03:00.522Z,7.70
2022-12-22T18:05:38.971Z,7.50
2022-12-22T18:08:05.916Z,7.80
2022-12-22T18:10:37.149Z,8.40
2022-12-22T18:13:05.724Z,7.70
2022-12-22T18:15:32.384Z,7.80
2022-12-22T18:18:00.278Z,7.80
2022-12-22T18:20:28.422Z,7.80
2022-12-22T18:22:58.185Z,7.80
2022-12-22T18:25:28.141Z,7.70
2022-12-22T18:27:55.417Z,7.70
2022-12-22T18:30:28.190Z,7.70
2022-12-22T18:32:56.329Z,7.70
2022-12-22T18:35:27.487Z,7.70
2022-12-22T18:37:55.622Z,7.60
2022-12-22T18:40:28.763Z,7.60
2022-12-22T18:42:56.502Z,7.60
2022-12-22T18:45:26.629Z,7.50
2022-12-22T18:47:54.297Z,7.60
2022-12-22T18:50:26.926Z,7.60
2022-12-22T18:52:54.937Z,7.60
2022-12-22T18:55:24.679Z,7.70
2022-12-22T18:57:52.882Z,7.70
2022-12-22T19:00:22.430Z,7.70
2022-12-22T19:02:51.373Z,7.70
2022-12-22T19:05:23.966Z,7.70
2022-12-22T19:07:51.670Z,7.80
2022-12-22T19:10:23.719Z,7.80
2022-12-22T19:12:53.889Z,7.90
2022-12-22T19:15:30.324Z,8.00
2022-12-22T19:17:57.085Z,8.10
2022-12-22T19:20:25.631Z,8.20
2022-12-22T19:22:52.462Z,8.20
2022-12-22T19:25:23.351Z,8.30
2022-12-22T19:27:53.359Z,8.20
2022-12-22T19:30:25.899Z,8.30
2022-12-22T19:32:56.541Z,8.30
2022-12-22T19:35:24.433Z,8.30
2022-12-22T19:37:52.824Z,8.30
2022-12-22T19:40:21.844Z,8.30
2022-12-22T19:42:51.237Z,8.20
2022-12-22T19:45:35.484Z,8.20
2022-12-22T19:48:03.852Z,8.30
2022-12-22T19:50:31.762Z,8.20
2022-12-22T19:52:59.287Z,8.30
2022-12-22T19:55:29.270Z,8.30
2022-12-22T19:57:56.241Z,8.50
2022-12-22T20:00:26.580Z,8.30
2022-12-22T20:02:55.848Z,8.30
2022-12-22T20:05:22.561Z,8.20
2022-12-22T20:07:57.195Z,8.10
2022-12-22T20:10:25.150Z,8.00
2022-12-22T20:12:55.239Z,8.20
2022-12-22T20:15:28.412Z,8.20
2022-12-22T20:17:57.107Z,8.20
2022-12-22T20:20:35.772Z,8.10
2022-12-22T20:23:06.413Z,8.20
2022-12-22T20:25:39.875Z,8.20
2022-12-22T20:28:17.155Z,8.10
2022-12-22T20:30:44.927Z,8.20
2022-12-22T20:33:12.200Z,8.30
2022-12-22T20:35:39.590Z,8.30
2022-12-22T20:38:21.654Z,8.20
2022-12-22T20:40:49.687Z,8.20
2022-12-22T20:43:21.694Z,8.20
2022-12-22T20:45:51.961Z,8.20
2022-12-22T20:48:40.504Z,8.20
2022-12-22T20:51:10.327Z,8.30
2022-12-22T20:53:38.457Z,8.20
2022-12-22T20:56:16.590Z,8.10
2022-12-22T20:58:43.504Z,8.10
2022-12-22T21:01:10.546Z,8.10
2022-12-22T21:03:37.325Z,8.00
2022-12-22T21:06:27.495Z,8.00
2022-12-22T21:08:56.632Z,8.00
2022-12-22T21:11:23.671Z,8.00
2022-12-22T21:13:51.174Z,8.00
2022-12-22T21:16:20.490Z,8.00
2022-12-22T21:18:47.270Z,8.00
2022-12-22T21:21:14.791Z,8.10
2022-12-22T21:23:41.660Z,8.00
2022-12-22T21:26:15.596Z,7.90
2022-12-22T21:28:42.299Z,8.00
2022-12-22T21:31:09.011Z,7.90
2022-12-22T21:33:35.726Z,7.90
2022-12-22T21:36:03.030Z,7.80
2022-12-22T21:38:32.504Z,7.80
2022-12-22T21:40:59.435Z,7.90
2022-12-22T21:43:26.160Z,7.80
2022-12-22T21:45:53.066Z,7.80
2022-12-22T21:48:21.175Z,7.80
2022-12-22T21:50:50.308Z,7.80
2022-12-22T21:53:22.472Z,8.10
2022-12-22T21:55:49.913Z,8.00
2022-12-22T21:58:16.813Z,7.90
2022-12-22T22:00:47.471Z,7.80
2022-12-22T22:03:15.810Z,7.80
2022-12-22T22:05:42.962Z,7.80
2022-12-22T22:08:11.345Z,7.80
2022-12-22T22:10:40.263Z,7.80
2022-12-22T22:13:07.979Z,7.90
2022-12-22T22:15:35.343Z,7.80
2022-12-22T22:18:06.879Z,7.80
2022-12-22T22:20:34.733Z,7.90
2022-12-22T22:23:01.549Z,8.10
2022-12-22T22:25:28.301Z,7.90
2022-12-22T22:27:58.966Z,7.90
2022-12-22T22:30:26.134Z,7.90
2022-12-22T22:32:54.264Z,7.70
2022-12-22T22:35:22.669Z,8.00
2022-12-22T22:37:52.769Z,8.00
2022-12-22T22:40:21.868Z,7.80
2022-12-22T22:42:49.088Z,8.00
2022-12-22T22:45:22.988Z,8.00
2022-12-22T22:47:51.348Z,8.00
2022-12-22T22:50:19.384Z,8.00
2022-12-22T22:52:47.379Z,8.00
2022-12-22T22:55:15.122Z,8.00
2022-12-22T22:57:42.665Z,8.00
2022-12-22T23:00:12.720Z,7.90
2022-12-22T23:02:39.932Z,8.00
2022-12-22T23:05:07.718Z,8.10
2022-12-22T23:07:35.862Z,8.10
2022-12-22T23:10:02.758Z,7.90
2022-12-22T23:12:29.422Z,7.50
2022-12-22T23:14:56.124Z,8.00
2022-12-22T23:17:22.907Z,8.00
2022-12-22T23:19:49.743Z,8.00
2022-12-22T23:22:16.480Z,8.00
2022-12-22T23:24:43.216Z,8.00
2022-12-22T23:27:09.942Z,7.90
2022-12-22T23:29:37.065Z,7.90
2022-12-22T23:32:04.607Z,8.00
2022-12-22T23:34:31.559Z,8.30
2022-12-22T23:36:58.408Z,7.90
2022-12-22T23:39:25.133Z,7.90
2022-12-22T23:41:51.789Z,8.10
2022-12-22T23:44:18.514Z,7.90
2022-12-22T23:46:45.251Z,7.90
2022-12-22T23:49:12.510Z,8.00
2022-12-22T23:51:40.568Z,8.00
2022-12-22T23:54:07.317Z,8.00
2022-12-22T23:56:33.994Z,8.00
2022-12-22T23:59:00.684Z,7.80
